sensor_id;sensor_type;location;lat;lon;timestamp;P1;durP1;ratioP1;P2;durP2;ratioP2
42586;SDS011;28216;53.362;-6.288;2022-11-12T00:01:01;6.78;;;4.43;;
42586;SDS011;28216;53.362;-6.288;2022-11-12T00:03:29;6.93;;;4.10;;
42586;SDS011;28216;53.362;-6.288;2022-11-12T00:05:55;7.03;;;3.55;;
42586;SDS011;28216;53.362;-6.288;2022-11-12T00:08:20;5.20;;;3.55;;
42586;SDS011;28216;53.362;-6.288;2022-11-12T00:10:51;5.93;;;3.88;;
42586;SDS011;28216;53.362;-6.288;2022-11-12T00:13:16;6.85;;;3.65;;
42586;SDS011;28216;53.362;-6.288;2022-11-12T00:15:52;6.72;;;3.60;;
42586;SDS011;28216;53.362;-6.288;2022-11-12T00:18:18;8.57;;;3.78;;
42586;SDS011;28216;53.362;-6.288;2022-11-12T00:20:44;6.35;;;3.90;;
42586;SDS011;28216;53.362;-6.288;2022-11-12T00:23:09;6.45;;;3.60;;
42586;SDS011;28216;53.362;-6.288;2022-11-12T00:25:35;5.10;;;3.70;;
42586;SDS011;28216;53.362;-6.288;2022-11-12T00:28:03;5.45;;;3.00;;
42586;SDS011;28216;53.362;-6.288;2022-11-12T00:30:32;2.88;;;2.30;;
42586;SDS011;28216;53.362;-6.288;2022-11-12T00:33:04;3.65;;;2.15;;
42586;SDS011;28216;53.362;-6.288;2022-11-12T00:35:33;2.63;;;1.85;;
42586;SDS011;28216;53.362;-6.288;2022-11-12T00:37:59;2.70;;;2.30;;
42586;SDS011;28216;53.362;-6.288;2022-11-12T00:40:30;2.75;;;2.10;;
42586;SDS011;28216;53.362;-6.288;2022-11-12T00:42:55;1.90;;;1.70;;
42586;SDS011;28216;53.362;-6.288;2022-11-12T00:45:21;1.80;;;1.30;;
42586;SDS011;28216;53.362;-6.288;2022-11-12T00:47:53;3.03;;;2.72;;
42586;SDS011;28216;53.362;-6.288;2022-11-12T00:50:22;3.72;;;1.70;;
42586;SDS011;28216;53.362;-6.288;2022-11-12T00:52:50;1.27;;;1.10;;
42586;SDS011;28216;53.362;-6.288;2022-11-12T00:55:16;3.17;;;1.27;;
42586;SDS011;28216;53.362;-6.288;2022-11-12T00:57:47;2.85;;;2.00;;
42586;SDS011;28216;53.362;-6.288;2022-11-12T01:00:16;2.13;;;1.60;;
42586;SDS011;28216;53.362;-6.288;2022-11-12T01:02:43;3.20;;;1.70;;
42586;SDS011;28216;53.362;-6.288;2022-11-12T01:05:17;4.93;;;1.58;;
42586;SDS011;28216;53.362;-6.288;2022-11-12T01:07:46;3.40;;;1.52;;
42586;SDS011;28216;53.362;-6.288;2022-11-12T01:10:12;3.35;;;1.70;;
42586;SDS011;28216;53.362;-6.288;2022-11-12T01:12:43;4.07;;;2.10;;
42586;SDS011;28216;53.362;-6.288;2022-11-12T01:15:09;5.25;;;2.63;;
42586;SDS011;28216;53.362;-6.288;2022-11-12T01:17:35;6.13;;;5.28;;
42586;SDS011;28216;53.362;-6.288;2022-11-12T01:20:00;10.90;;;7.90;;
42586;SDS011;28216;53.362;-6.288;2022-11-12T01:22:28;8.50;;;4.40;;
42586;SDS011;28216;53.362;-6.288;2022-11-12T01:24:54;3.88;;;2.53;;
42586;SDS011;28216;53.362;-6.288;2022-11-12T01:27:19;3.63;;;1.70;;
42586;SDS011;28216;53.362;-6.288;2022-11-12T01:29:54;2.15;;;1.27;;
42586;SDS011;28216;53.362;-6.288;2022-11-12T01:32:23;3.85;;;1.40;;
42586;SDS011;28216;53.362;-6.288;2022-11-12T01:34:49;2.47;;;1.20;;
42586;SDS011;28216;53.362;-6.288;2022-11-12T01:37:15;1.30;;;1.20;;
42586;SDS011;28216;53.362;-6.288;2022-11-12T01:39:40;3.55;;;1.73;;
42586;SDS011;28216;53.362;-6.288;2022-11-12T01:42:06;3.25;;;1.50;;
42586;SDS011;28216;53.362;-6.288;2022-11-12T01:44:37;2.20;;;1.50;;
42586;SDS011;28216;53.362;-6.288;2022-11-12T01:47:10;3.28;;;1.40;;
42586;SDS011;28216;53.362;-6.288;2022-11-12T01:49:59;4.50;;;1.40;;
42586;SDS011;28216;53.362;-6.288;2022-11-12T01:52:36;3.10;;;1.25;;
42586;SDS011;28216;53.362;-6.288;2022-11-12T01:55:11;3.67;;;1.20;;
42586;SDS011;28216;53.362;-6.288;2022-11-12T01:58:32;2.92;;;1.48;;
42586;SDS011;28216;53.362;-6.288;2022-11-12T02:00:43;3.75;;;2.72;;
42586;SDS011;28216;53.362;-6.288;2022-11-12T02:03:22;2.35;;;1.00;;
42586;SDS011;28216;53.362;-6.288;2022-11-12T02:08:19;2.78;;;1.05;;
42586;SDS011;28216;53.362;-6.288;2022-11-12T02:10:49;1.50;;;0.90;;
42586;SDS011;28216;53.362;-6.288;2022-11-12T02:13:14;4.00;;;1.05;;
42586;SDS011;28216;53.362;-6.288;2022-11-12T02:16:00;1.90;;;0.95;;
42586;SDS011;28216;53.362;-6.288;2022-11-12T02:18:29;3.00;;;0.90;;
42586;SDS011;28216;53.362;-6.288;2022-11-12T02:20:56;2.72;;;1.20;;
42586;SDS011;28216;53.362;-6.288;2022-11-12T02:23:26;3.50;;;1.35;;
42586;SDS011;28216;53.362;-6.288;2022-11-12T02:25:51;3.85;;;1.10;;
42586;SDS011;28216;53.362;-6.288;2022-11-12T02:28:24;3.20;;;1.73;;
42586;SDS011;28216;53.362;-6.288;2022-11-12T02:30:50;2.35;;;1.05;;
42586;SDS011;28216;53.362;-6.288;2022-11-12T02:33:15;3.40;;;1.30;;
42586;SDS011;28216;53.362;-6.288;2022-11-12T02:35:43;3.70;;;1.25;;
42586;SDS011;28216;53.362;-6.288;2022-11-12T02:38:09;5.25;;;1.63;;
42586;SDS011;28216;53.362;-6.288;2022-11-12T02:40:35;5.50;;;1.38;;
42586;SDS011;28216;53.362;-6.288;2022-11-12T02:43:01;3.08;;;1.08;;
42586;SDS011;28216;53.362;-6.288;2022-11-12T02:45:32;4.32;;;1.13;;
42586;SDS011;28216;53.362;-6.288;2022-11-12T02:47:58;3.97;;;1.42;;
42586;SDS011;28216;53.362;-6.288;2022-11-12T02:50:26;2.92;;;1.10;;
42586;SDS011;28216;53.362;-6.288;2022-11-12T02:52:51;3.00;;;1.25;;
42586;SDS011;28216;53.362;-6.288;2022-11-12T02:55:17;3.20;;;1.38;;
42586;SDS011;28216;53.362;-6.288;2022-11-12T02:57:45;3.95;;;1.10;;
42586;SDS011;28216;53.362;-6.288;2022-11-12T03:00:14;3.40;;;1.05;;
42586;SDS011;28216;53.362;-6.288;2022-11-12T03:02:45;3.33;;;2.05;;
42586;SDS011;28216;53.362;-6.288;2022-11-12T03:05:23;4.22;;;1.30;;
42586;SDS011;28216;53.362;-6.288;2022-11-12T03:08:16;4.43;;;1.40;;
42586;SDS011;28216;53.362;-6.288;2022-11-12T03:10:42;4.38;;;1.30;;
42586;SDS011;28216;53.362;-6.288;2022-11-12T03:13:11;3.25;;;1.00;;
42586;SDS011;28216;53.362;-6.288;2022-11-12T03:15:36;3.53;;;1.30;;
42586;SDS011;28216;53.362;-6.288;2022-11-12T03:18:04;2.63;;;1.10;;
42586;SDS011;28216;53.362;-6.288;2022-11-12T03:20:30;4.30;;;1.40;;
42586;SDS011;28216;53.362;-6.288;2022-11-12T03:23:05;3.75;;;1.20;;
42586;SDS011;28216;53.362;-6.288;2022-11-12T03:25:42;5.30;;;1.40;;
42586;SDS011;28216;53.362;-6.288;2022-11-12T03:28:11;5.93;;;1.25;;
42586;SDS011;28216;53.362;-6.288;2022-11-12T03:30:43;3.33;;;1.38;;
42586;SDS011;28216;53.362;-6.288;2022-11-12T03:33:10;3.53;;;1.38;;
42586;SDS011;28216;53.362;-6.288;2022-11-12T03:35:39;5.85;;;1.27;;
42586;SDS011;28216;53.362;-6.288;2022-11-12T03:38:05;3.70;;;1.15;;
42586;SDS011;28216;53.362;-6.288;2022-11-12T03:40:33;7.85;;;1.55;;
42586;SDS011;28216;53.362;-6.288;2022-11-12T03:42:59;3.60;;;1.30;;
42586;SDS011;28216;53.362;-6.288;2022-11-12T03:45:32;7.55;;;1.50;;
42586;SDS011;28216;53.362;-6.288;2022-11-12T03:48:01;4.75;;;1.50;;
42586;SDS011;28216;53.362;-6.288;2022-11-12T03:50:31;5.18;;;1.60;;
42586;SDS011;28216;53.362;-6.288;2022-11-12T03:52:57;4.78;;;1.80;;
42586;SDS011;28216;53.362;-6.288;2022-11-12T03:55:27;3.63;;;1.35;;
42586;SDS011;28216;53.362;-6.288;2022-11-12T03:57:53;4.78;;;1.70;;
42586;SDS011;28216;53.362;-6.288;2022-11-12T04:00:21;6.82;;;1.70;;
42586;SDS011;28216;53.362;-6.288;2022-11-12T04:02:48;3.10;;;1.33;;
42586;SDS011;28216;53.362;-6.288;2022-11-12T04:05:17;4.47;;;1.42;;
42586;SDS011;28216;53.362;-6.288;2022-11-12T04:08:06;5.97;;;1.70;;
42586;SDS011;28216;53.362;-6.288;2022-11-12T04:10:54;7.97;;;1.88;;
42586;SDS011;28216;53.362;-6.288;2022-11-12T04:13:20;5.90;;;1.65;;
42586;SDS011;28216;53.362;-6.288;2022-11-12T04:15:52;6.38;;;1.88;;
42586;SDS011;28216;53.362;-6.288;2022-11-12T04:18:47;7.22;;;1.80;;
42586;SDS011;28216;53.362;-6.288;2022-11-12T04:21:43;6.78;;;1.45;;
42586;SDS011;28216;53.362;-6.288;2022-11-12T04:27:16;4.72;;;1.40;;
42586;SDS011;28216;53.362;-6.288;2022-11-12T04:29:50;5.93;;;1.48;;
42586;SDS011;28216;53.362;-6.288;2022-11-12T04:32:36;8.85;;;1.77;;
42586;SDS011;28216;53.362;-6.288;2022-11-12T04:35:03;5.75;;;1.55;;
42586;SDS011;28216;53.362;-6.288;2022-11-12T04:37:30;5.10;;;1.80;;
42586;SDS011;28216;53.362;-6.288;2022-11-12T04:40:30;3.97;;;1.75;;
42586;SDS011;28216;53.362;-6.288;2022-11-12T04:43:14;7.38;;;1.77;;
42586;SDS011;28216;53.362;-6.288;2022-11-12T04:45:59;9.02;;;1.80;;
42586;SDS011;28216;53.362;-6.288;2022-11-12T04:48:26;5.70;;;1.80;;
42586;SDS011;28216;53.362;-6.288;2022-11-12T04:50:59;5.50;;;1.83;;
42586;SDS011;28216;53.362;-6.288;2022-11-12T04:53:26;5.45;;;1.60;;
42586;SDS011;28216;53.362;-6.288;2022-11-12T04:55:56;5.97;;;1.90;;
42586;SDS011;28216;53.362;-6.288;2022-11-12T04:58:22;7.88;;;1.98;;
42586;SDS011;28216;53.362;-6.288;2022-11-12T05:00:56;6.65;;;1.60;;
42586;SDS011;28216;53.362;-6.288;2022-11-12T05:03:29;7.68;;;1.95;;
42586;SDS011;28216;53.362;-6.288;2022-11-12T05:06:01;6.90;;;2.03;;
42586;SDS011;28216;53.362;-6.288;2022-11-12T05:08:27;7.15;;;2.10;;
42586;SDS011;28216;53.362;-6.288;2022-11-12T05:10:55;7.72;;;1.92;;
42586;SDS011;28216;53.362;-6.288;2022-11-12T05:13:20;6.35;;;1.63;;
42586;SDS011;28216;53.362;-6.288;2022-11-12T05:15:46;5.03;;;1.52;;
42586;SDS011;28216;53.362;-6.288;2022-11-12T05:18:12;6.40;;;2.03;;
42586;SDS011;28216;53.362;-6.288;2022-11-12T05:20:37;8.32;;;1.70;;
42586;SDS011;28216;53.362;-6.288;2022-11-12T05:23:05;7.68;;;1.80;;
42586;SDS011;28216;53.362;-6.288;2022-11-12T05:25:34;8.85;;;2.10;;
42586;SDS011;28216;53.362;-6.288;2022-11-12T05:28:00;9.38;;;1.90;;
42586;SDS011;28216;53.362;-6.288;2022-11-12T05:30:25;7.15;;;1.77;;
42586;SDS011;28216;53.362;-6.288;2022-11-12T05:32:51;6.65;;;1.75;;
42586;SDS011;28216;53.362;-6.288;2022-11-12T05:35:19;5.72;;;1.70;;
42586;SDS011;28216;53.362;-6.288;2022-11-12T05:37:47;7.38;;;1.95;;
42586;SDS011;28216;53.362;-6.288;2022-11-12T05:40:13;6.30;;;1.90;;
42586;SDS011;28216;53.362;-6.288;2022-11-12T05:42:41;8.80;;;2.10;;
42586;SDS011;28216;53.362;-6.288;2022-11-12T05:45:08;8.93;;;2.00;;
42586;SDS011;28216;53.362;-6.288;2022-11-12T05:47:34;4.38;;;1.60;;
42586;SDS011;28216;53.362;-6.288;2022-11-12T05:49:59;4.63;;;1.60;;
42586;SDS011;28216;53.362;-6.288;2022-11-12T05:52:28;8.10;;;1.80;;
42586;SDS011;28216;53.362;-6.288;2022-11-12T05:54:56;8.20;;;1.70;;
42586;SDS011;28216;53.362;-6.288;2022-11-12T05:57:27;7.75;;;1.75;;
42586;SDS011;28216;53.362;-6.288;2022-11-12T05:59:53;5.15;;;1.88;;
42586;SDS011;28216;53.362;-6.288;2022-11-12T06:02:21;5.15;;;1.75;;
42586;SDS011;28216;53.362;-6.288;2022-11-12T06:04:49;7.80;;;2.05;;
42586;SDS011;28216;53.362;-6.288;2022-11-12T06:07:21;9.15;;;2.17;;
42586;SDS011;28216;53.362;-6.288;2022-11-12T06:09:49;5.93;;;1.73;;
42586;SDS011;28216;53.362;-6.288;2022-11-12T06:12:18;7.25;;;1.90;;
42586;SDS011;28216;53.362;-6.288;2022-11-12T06:14:43;7.80;;;1.88;;
42586;SDS011;28216;53.362;-6.288;2022-11-12T06:17:09;6.13;;;1.65;;
42586;SDS011;28216;53.362;-6.288;2022-11-12T06:19:34;7.50;;;1.80;;
42586;SDS011;28216;53.362;-6.288;2022-11-12T06:22:02;5.45;;;1.95;;
42586;SDS011;28216;53.362;-6.288;2022-11-12T06:24:28;5.47;;;1.70;;
42586;SDS011;28216;53.362;-6.288;2022-11-12T06:26:54;4.43;;;1.45;;
42586;SDS011;28216;53.362;-6.288;2022-11-12T06:29:27;6.82;;;1.60;;
42586;SDS011;28216;53.362;-6.288;2022-11-12T06:31:54;3.17;;;1.40;;
42586;SDS011;28216;53.362;-6.288;2022-11-12T06:34:19;7.25;;;1.63;;
42586;SDS011;28216;53.362;-6.288;2022-11-12T06:36:45;8.70;;;2.00;;
42586;SDS011;28216;53.362;-6.288;2022-11-12T06:39:13;5.25;;;1.58;;
42586;SDS011;28216;53.362;-6.288;2022-11-12T06:41:38;5.15;;;1.50;;
42586;SDS011;28216;53.362;-6.288;2022-11-12T06:44:04;2.60;;;1.40;;
42586;SDS011;28216;53.362;-6.288;2022-11-12T06:46:30;4.55;;;1.25;;
42586;SDS011;28216;53.362;-6.288;2022-11-12T06:51:33;3.35;;;1.30;;
42586;SDS011;28216;53.362;-6.288;2022-11-12T06:53:59;5.05;;;1.42;;
42586;SDS011;28216;53.362;-6.288;2022-11-12T06:56:24;3.38;;;1.00;;
42586;SDS011;28216;53.362;-6.288;2022-11-12T06:58:52;4.47;;;1.33;;
42586;SDS011;28216;53.362;-6.288;2022-11-12T07:01:18;3.10;;;1.10;;
42586;SDS011;28216;53.362;-6.288;2022-11-12T07:03:53;3.20;;;1.05;;
42586;SDS011;28216;53.362;-6.288;2022-11-12T07:06:21;3.22;;;1.38;;
42586;SDS011;28216;53.362;-6.288;2022-11-12T07:08:46;5.10;;;1.50;;
42586;SDS011;28216;53.362;-6.288;2022-11-12T07:11:18;5.63;;;1.92;;
42586;SDS011;28216;53.362;-6.288;2022-11-12T07:13:56;9.52;;;2.00;;
42586;SDS011;28216;53.362;-6.288;2022-11-12T07:16:21;12.30;;;2.75;;
42586;SDS011;28216;53.362;-6.288;2022-11-12T07:18:47;11.27;;;2.70;;
42586;SDS011;28216;53.362;-6.288;2022-11-12T07:21:17;9.40;;;2.30;;
42586;SDS011;28216;53.362;-6.288;2022-11-12T07:23:44;8.95;;;2.10;;
42586;SDS011;28216;53.362;-6.288;2022-11-12T07:26:14;8.43;;;2.17;;
42586;SDS011;28216;53.362;-6.288;2022-11-12T07:28:47;7.65;;;2.30;;
42586;SDS011;28216;53.362;-6.288;2022-11-12T07:31:16;6.22;;;2.00;;
42586;SDS011;28216;53.362;-6.288;2022-11-12T07:33:43;7.90;;;2.20;;
42586;SDS011;28216;53.362;-6.288;2022-11-12T07:36:15;10.50;;;2.35;;
42586;SDS011;28216;53.362;-6.288;2022-11-12T07:38:42;8.35;;;2.00;;
42586;SDS011;28216;53.362;-6.288;2022-11-12T07:41:15;5.57;;;2.00;;
42586;SDS011;28216;53.362;-6.288;2022-11-12T07:43:47;7.18;;;1.83;;
42586;SDS011;28216;53.362;-6.288;2022-11-12T07:46:18;7.63;;;2.20;;
42586;SDS011;28216;53.362;-6.288;2022-11-12T07:48:51;6.68;;;1.90;;
42586;SDS011;28216;53.362;-6.288;2022-11-12T07:51:19;8.85;;;2.30;;
42586;SDS011;28216;53.362;-6.288;2022-11-12T07:53:47;7.95;;;2.35;;
42586;SDS011;28216;53.362;-6.288;2022-11-12T07:56:14;5.30;;;2.00;;
42586;SDS011;28216;53.362;-6.288;2022-11-12T07:58:42;5.90;;;2.08;;
42586;SDS011;28216;53.362;-6.288;2022-11-12T08:01:09;10.57;;;2.60;;
42586;SDS011;28216;53.362;-6.288;2022-11-12T08:03:39;9.13;;;2.40;;
42586;SDS011;28216;53.362;-6.288;2022-11-12T08:06:04;14.80;;;2.97;;
42586;SDS011;28216;53.362;-6.288;2022-11-12T08:08:30;8.25;;;2.08;;
42586;SDS011;28216;53.362;-6.288;2022-11-12T08:10:56;9.05;;;2.20;;
42586;SDS011;28216;53.362;-6.288;2022-11-12T08:13:23;9.50;;;2.50;;
42586;SDS011;28216;53.362;-6.288;2022-11-12T08:15:52;8.65;;;2.58;;
42586;SDS011;28216;53.362;-6.288;2022-11-12T08:18:21;10.18;;;2.50;;
42586;SDS011;28216;53.362;-6.288;2022-11-12T08:20:47;9.75;;;2.50;;
42586;SDS011;28216;53.362;-6.288;2022-11-12T08:23:12;8.73;;;2.20;;
42586;SDS011;28216;53.362;-6.288;2022-11-12T08:25:38;8.52;;;2.33;;
42586;SDS011;28216;53.362;-6.288;2022-11-12T08:31:25;12.05;;;2.50;;
42586;SDS011;28216;53.362;-6.288;2022-11-12T08:33:50;10.90;;;3.00;;
42586;SDS011;28216;53.362;-6.288;2022-11-12T08:36:16;10.45;;;2.40;;
42586;SDS011;28216;53.362;-6.288;2022-11-12T08:38:42;8.75;;;2.03;;
42586;SDS011;28216;53.362;-6.288;2022-11-12T08:41:09;8.60;;;2.67;;
42586;SDS011;28216;53.362;-6.288;2022-11-12T08:43:39;8.40;;;2.20;;
42586;SDS011;28216;53.362;-6.288;2022-11-12T08:46:05;12.32;;;2.47;;
42586;SDS011;28216;53.362;-6.288;2022-11-12T08:48:31;14.15;;;2.63;;
42586;SDS011;28216;53.362;-6.288;2022-11-12T08:50:59;13.63;;;2.70;;
42586;SDS011;28216;53.362;-6.288;2022-11-12T08:53:29;10.80;;;2.42;;
42586;SDS011;28216;53.362;-6.288;2022-11-12T08:55:55;12.90;;;2.40;;
42586;SDS011;28216;53.362;-6.288;2022-11-12T08:58:21;9.82;;;2.20;;
42586;SDS011;28216;53.362;-6.288;2022-11-12T09:00:48;10.77;;;2.72;;
42586;SDS011;28216;53.362;-6.288;2022-11-12T09:03:19;15.30;;;2.70;;
42586;SDS011;28216;53.362;-6.288;2022-11-12T09:05:47;13.93;;;3.17;;
42586;SDS011;28216;53.362;-6.288;2022-11-12T09:08:15;9.48;;;2.60;;
42586;SDS011;28216;53.362;-6.288;2022-11-12T09:10:42;11.90;;;2.70;;
42586;SDS011;28216;53.362;-6.288;2022-11-12T09:13:08;7.78;;;2.70;;
42586;SDS011;28216;53.362;-6.288;2022-11-12T09:15:34;8.18;;;2.58;;
42586;SDS011;28216;53.362;-6.288;2022-11-12T09:18:00;10.50;;;2.63;;
42586;SDS011;28216;53.362;-6.288;2022-11-12T09:20:28;8.48;;;2.70;;
42586;SDS011;28216;53.362;-6.288;2022-11-12T09:22:58;6.32;;;2.45;;
42586;SDS011;28216;53.362;-6.288;2022-11-12T09:25:25;8.30;;;2.97;;
42586;SDS011;28216;53.362;-6.288;2022-11-12T09:27:51;10.90;;;2.70;;
42586;SDS011;28216;53.362;-6.288;2022-11-12T09:30:17;11.18;;;2.40;;
42586;SDS011;28216;53.362;-6.288;2022-11-12T09:32:43;8.30;;;2.20;;
42586;SDS011;28216;53.362;-6.288;2022-11-12T09:35:08;9.63;;;2.22;;
42586;SDS011;28216;53.362;-6.288;2022-11-12T09:37:37;9.57;;;2.42;;
42586;SDS011;28216;53.362;-6.288;2022-11-12T09:40:10;15.63;;;2.65;;
42586;SDS011;28216;53.362;-6.288;2022-11-12T09:42:42;6.45;;;2.20;;
42586;SDS011;28216;53.362;-6.288;2022-11-12T09:45:13;10.40;;;2.38;;
42586;SDS011;28216;53.362;-6.288;2022-11-12T09:47:47;8.90;;;2.55;;
42586;SDS011;28216;53.362;-6.288;2022-11-12T09:50:39;10.93;;;2.40;;
42586;SDS011;28216;53.362;-6.288;2022-11-12T09:53:34;10.65;;;2.47;;
42586;SDS011;28216;53.362;-6.288;2022-11-12T09:56:04;9.77;;;2.45;;
42586;SDS011;28216;53.362;-6.288;2022-11-12T09:58:32;8.57;;;2.42;;
42586;SDS011;28216;53.362;-6.288;2022-11-12T10:01:00;10.57;;;2.28;;
42586;SDS011;28216;53.362;-6.288;2022-11-12T10:03:34;7.60;;;2.38;;
42586;SDS011;28216;53.362;-6.288;2022-11-12T10:06:11;6.22;;;2.30;;
42586;SDS011;28216;53.362;-6.288;2022-11-12T10:08:49;8.90;;;2.42;;
42586;SDS011;28216;53.362;-6.288;2022-11-12T10:11:33;11.40;;;2.45;;
42586;SDS011;28216;53.362;-6.288;2022-11-12T10:14:32;8.48;;;2.65;;
42586;SDS011;28216;53.362;-6.288;2022-11-12T10:19:40;10.60;;;2.63;;
42586;SDS011;28216;53.362;-6.288;2022-11-12T10:24:45;10.30;;;2.75;;
42586;SDS011;28216;53.362;-6.288;2022-11-12T10:27:22;8.93;;;2.83;;
42586;SDS011;28216;53.362;-6.288;2022-11-12T10:30:02;12.43;;;2.90;;
42586;SDS011;28216;53.362;-6.288;2022-11-12T10:32:30;11.57;;;2.60;;
42586;SDS011;28216;53.362;-6.288;2022-11-12T10:35:01;9.68;;;3.17;;
42586;SDS011;28216;53.362;-6.288;2022-11-12T10:40:31;8.38;;;2.72;;
42586;SDS011;28216;53.362;-6.288;2022-11-12T10:43:01;10.68;;;2.20;;
42586;SDS011;28216;53.362;-6.288;2022-11-12T10:45:39;12.02;;;2.65;;
42586;SDS011;28216;53.362;-6.288;2022-11-12T10:48:27;8.85;;;2.20;;
42586;SDS011;28216;53.362;-6.288;2022-11-12T10:50:53;10.82;;;2.30;;
42586;SDS011;28216;53.362;-6.288;2022-11-12T10:53:35;10.27;;;2.40;;
42586;SDS011;28216;53.362;-6.288;2022-11-12T10:56:03;8.25;;;2.40;;
42586;SDS011;28216;53.362;-6.288;2022-11-12T11:01:42;7.40;;;1.83;;
42586;SDS011;28216;53.362;-6.288;2022-11-12T11:04:16;7.20;;;1.88;;
42586;SDS011;28216;53.362;-6.288;2022-11-12T11:09:55;11.10;;;2.40;;
42586;SDS011;28216;53.362;-6.288;2022-11-12T11:12:22;9.10;;;2.10;;
42586;SDS011;28216;53.362;-6.288;2022-11-12T11:17:38;6.38;;;2.42;;
42586;SDS011;28216;53.362;-6.288;2022-11-12T11:20:23;6.55;;;2.03;;
42586;SDS011;28216;53.362;-6.288;2022-11-12T11:22:58;12.10;;;2.50;;
42586;SDS011;28216;53.362;-6.288;2022-11-12T11:25:37;9.48;;;2.97;;
42586;SDS011;28216;53.362;-6.288;2022-11-12T11:31:10;8.35;;;2.67;;
42586;SDS011;28216;53.362;-6.288;2022-11-12T11:36:15;9.15;;;2.50;;
42586;SDS011;28216;53.362;-6.288;2022-11-12T11:39:00;12.48;;;2.80;;
42586;SDS011;28216;53.362;-6.288;2022-11-12T11:41:43;11.65;;;2.72;;
42586;SDS011;28216;53.362;-6.288;2022-11-12T11:52:28;8.90;;;3.03;;
42586;SDS011;28216;53.362;-6.288;2022-11-12T12:00:24;6.47;;;2.15;;
42586;SDS011;28216;53.362;-6.288;2022-11-12T12:05:39;6.38;;;2.72;;
42586;SDS011;28216;53.362;-6.288;2022-11-12T12:16:14;9.23;;;2.45;;
42586;SDS011;28216;53.362;-6.288;2022-11-12T12:21:27;8.93;;;2.35;;
42586;SDS011;28216;53.362;-6.288;2022-11-12T12:24:09;9.13;;;2.70;;
42586;SDS011;28216;53.362;-6.288;2022-11-12T12:26:50;11.45;;;3.00;;
42586;SDS011;28216;53.362;-6.288;2022-11-12T12:34:42;9.73;;;2.85;;
42586;SDS011;28216;53.362;-6.288;2022-11-12T12:37:22;6.35;;;2.60;;
42586;SDS011;28216;53.362;-6.288;2022-11-12T12:42:59;7.28;;;2.50;;
42586;SDS011;28216;53.362;-6.288;2022-11-12T12:45:41;8.60;;;2.78;;
42586;SDS011;28216;53.362;-6.288;2022-11-12T12:48:19;9.65;;;2.80;;
42586;SDS011;28216;53.362;-6.288;2022-11-12T12:50:49;6.88;;;2.63;;
42586;SDS011;28216;53.362;-6.288;2022-11-12T12:55:50;10.50;;;2.63;;
42586;SDS011;28216;53.362;-6.288;2022-11-12T12:58:27;10.05;;;3.50;;
42586;SDS011;28216;53.362;-6.288;2022-11-12T13:00:59;12.02;;;3.28;;
42586;SDS011;28216;53.362;-6.288;2022-11-12T13:08:48;8.90;;;2.85;;
42586;SDS011;28216;53.362;-6.288;2022-11-12T13:19:28;5.97;;;3.17;;
42586;SDS011;28216;53.362;-6.288;2022-11-12T13:35:19;11.80;;;3.72;;
42586;SDS011;28216;53.362;-6.288;2022-11-12T13:40:14;10.73;;;3.13;;
42586;SDS011;28216;53.362;-6.288;2022-11-12T13:42:56;13.10;;;3.75;;
42586;SDS011;28216;53.362;-6.288;2022-11-12T13:45:28;7.55;;;3.33;;
42586;SDS011;28216;53.362;-6.288;2022-11-12T13:47:59;10.05;;;3.47;;
42586;SDS011;28216;53.362;-6.288;2022-11-12T13:50:29;10.20;;;3.28;;
42586;SDS011;28216;53.362;-6.288;2022-11-12T13:52:57;10.05;;;3.33;;
42586;SDS011;28216;53.362;-6.288;2022-11-12T13:55:23;10.95;;;3.67;;
42586;SDS011;28216;53.362;-6.288;2022-11-12T13:57:49;10.63;;;3.92;;
42586;SDS011;28216;53.362;-6.288;2022-11-12T14:02:41;10.18;;;4.18;;
42586;SDS011;28216;53.362;-6.288;2022-11-12T14:05:17;9.98;;;4.25;;
42586;SDS011;28216;53.362;-6.288;2022-11-12T14:08:01;15.02;;;4.50;;
42586;SDS011;28216;53.362;-6.288;2022-11-12T14:10:34;16.95;;;4.80;;
42586;SDS011;28216;53.362;-6.288;2022-11-12T14:13:20;13.57;;;4.10;;
42586;SDS011;28216;53.362;-6.288;2022-11-12T14:16:00;13.70;;;4.60;;
42586;SDS011;28216;53.362;-6.288;2022-11-12T14:21:15;15.75;;;5.45;;
42586;SDS011;28216;53.362;-6.288;2022-11-12T14:23:45;10.63;;;4.65;;
42586;SDS011;28216;53.362;-6.288;2022-11-12T14:26:13;14.27;;;4.90;;
42586;SDS011;28216;53.362;-6.288;2022-11-12T14:28:59;15.38;;;5.03;;
42586;SDS011;28216;53.362;-6.288;2022-11-12T14:31:24;17.75;;;5.63;;
42586;SDS011;28216;53.362;-6.288;2022-11-12T14:33:50;11.45;;;5.50;;
42586;SDS011;28216;53.362;-6.288;2022-11-12T14:36:16;15.30;;;5.80;;
42586;SDS011;28216;53.362;-6.288;2022-11-12T14:38:52;11.73;;;5.00;;
42586;SDS011;28216;53.362;-6.288;2022-11-12T14:41:24;14.18;;;5.18;;
42586;SDS011;28216;53.362;-6.288;2022-11-12T14:43:58;12.85;;;5.60;;
42586;SDS011;28216;53.362;-6.288;2022-11-12T14:46:28;12.80;;;5.53;;
42586;SDS011;28216;53.362;-6.288;2022-11-12T14:54:53;16.95;;;6.22;;
42586;SDS011;28216;53.362;-6.288;2022-11-12T14:57:27;12.35;;;5.85;;
42586;SDS011;28216;53.362;-6.288;2022-11-12T14:59:55;11.75;;;5.13;;
42586;SDS011;28216;53.362;-6.288;2022-11-12T15:02:28;21.15;;;6.60;;
42586;SDS011;28216;53.362;-6.288;2022-11-12T15:05:18;14.32;;;5.32;;
42586;SDS011;28216;53.362;-6.288;2022-11-12T15:10:27;16.15;;;5.57;;
42586;SDS011;28216;53.362;-6.288;2022-11-12T15:15:36;13.13;;;5.45;;
42586;SDS011;28216;53.362;-6.288;2022-11-12T15:18:05;13.00;;;5.57;;
42586;SDS011;28216;53.362;-6.288;2022-11-12T15:20:38;17.58;;;5.00;;
42586;SDS011;28216;53.362;-6.288;2022-11-12T15:23:03;14.50;;;5.38;;
42586;SDS011;28216;53.362;-6.288;2022-11-12T15:25:30;16.30;;;5.53;;
42586;SDS011;28216;53.362;-6.288;2022-11-12T15:28:45;18.27;;;5.90;;
42586;SDS011;28216;53.362;-6.288;2022-11-12T15:31:05;11.38;;;4.85;;
42586;SDS011;28216;53.362;-6.288;2022-11-12T15:33:45;12.23;;;6.75;;
42586;SDS011;28216;53.362;-6.288;2022-11-12T15:36:14;11.00;;;4.97;;
42586;SDS011;28216;53.362;-6.288;2022-11-12T15:38:45;14.40;;;8.20;;
42586;SDS011;28216;53.362;-6.288;2022-11-12T15:41:27;13.18;;;6.43;;
42586;SDS011;28216;53.362;-6.288;2022-11-12T15:43:54;13.25;;;5.72;;
42586;SDS011;28216;53.362;-6.288;2022-11-12T15:46:20;12.27;;;5.45;;
42586;SDS011;28216;53.362;-6.288;2022-11-12T15:48:46;16.13;;;8.63;;
42586;SDS011;28216;53.362;-6.288;2022-11-12T15:51:11;10.82;;;5.88;;
42586;SDS011;28216;53.362;-6.288;2022-11-12T15:53:40;11.50;;;7.03;;
42586;SDS011;28216;53.362;-6.288;2022-11-12T15:56:12;10.60;;;4.70;;
42586;SDS011;28216;53.362;-6.288;2022-11-12T15:58:41;8.20;;;4.78;;
42586;SDS011;28216;53.362;-6.288;2022-11-12T16:01:06;12.32;;;6.07;;
42586;SDS011;28216;53.362;-6.288;2022-11-12T16:03:34;9.18;;;4.43;;
42586;SDS011;28216;53.362;-6.288;2022-11-12T16:05:59;14.95;;;6.22;;
42586;SDS011;28216;53.362;-6.288;2022-11-12T16:08:25;7.40;;;4.63;;
42586;SDS011;28216;53.362;-6.288;2022-11-12T16:10:50;6.88;;;3.92;;
42586;SDS011;28216;53.362;-6.288;2022-11-12T16:13:22;11.95;;;4.53;;
42586;SDS011;28216;53.362;-6.288;2022-11-12T16:15:51;13.30;;;4.47;;
42586;SDS011;28216;53.362;-6.288;2022-11-12T16:18:16;10.75;;;4.25;;
42586;SDS011;28216;53.362;-6.288;2022-11-12T16:20:42;10.27;;;4.38;;
42586;SDS011;28216;53.362;-6.288;2022-11-12T16:23:07;11.32;;;4.70;;
42586;SDS011;28216;53.362;-6.288;2022-11-12T16:25:34;9.50;;;4.80;;
42586;SDS011;28216;53.362;-6.288;2022-11-12T16:28:01;9.30;;;3.95;;
42586;SDS011;28216;53.362;-6.288;2022-11-12T16:30:28;9.05;;;3.90;;
42586;SDS011;28216;53.362;-6.288;2022-11-12T16:32:56;8.38;;;4.30;;
42586;SDS011;28216;53.362;-6.288;2022-11-12T16:35:22;9.80;;;4.38;;
42586;SDS011;28216;53.362;-6.288;2022-11-12T16:37:48;7.95;;;4.05;;
42586;SDS011;28216;53.362;-6.288;2022-11-12T16:40:19;12.45;;;4.72;;
42586;SDS011;28216;53.362;-6.288;2022-11-12T16:42:47;6.65;;;3.67;;
42586;SDS011;28216;53.362;-6.288;2022-11-12T16:45:16;9.25;;;4.60;;
42586;SDS011;28216;53.362;-6.288;2022-11-12T16:47:46;11.57;;;4.55;;